createdAt,value
2018-10-17T00:01:50.990Z,36.77
2018-10-17T00:04:21.681Z,35.03
2018-10-17T00:06:51.527Z,36.23
2018-10-17T00:09:21.451Z,36.83
2018-10-17T00:11:50.749Z,36.30
2018-10-17T00:14:21.034Z,35.80
2018-10-17T00:16:51.139Z,38.07
2018-10-17T00:19:20.351Z,34.00
2018-10-17T00:21:51.638Z,34.10
2018-10-17T00:25:24.807Z,37.03
2018-10-17T00:27:54.214Z,32.90
2018-10-17T00:30:24.874Z,33.83
2018-10-17T00:32:55.436Z,32.27
2018-10-17T00:35:24.422Z,35.07
2018-10-17T00:37:53.430Z,33.00
2018-10-17T00:40:25.038Z,34.47
2018-10-17T00:42:56.203Z,33.40
2018-10-17T00:45:25.639Z,35.57
2018-10-17T00:47:56.182Z,34.27
2018-10-17T00:50:25.848Z,35.27
2018-10-17T00:52:54.865Z,34.77
2018-10-17T00:55:25.949Z,35.07
2018-10-17T00:57:55.736Z,34.47
2018-10-17T01:00:25.025Z,33.23
2018-10-17T01:02:54.490Z,36.00
2018-10-17T01:05:24.752Z,34.10
2018-10-17T01:07:55.195Z,34.73
2018-10-17T01:10:26.346Z,37.27
2018-10-17T01:12:56.938Z,36.73
2018-10-17T01:15:26.237Z,40.10
2018-10-17T01:17:56.246Z,38.23
2018-10-17T01:20:27.008Z,39.73
2018-10-17T01:22:58.788Z,37.77
2018-10-17T01:25:32.073Z,38.27
2018-10-17T01:28:01.313Z,36.47
2018-10-17T01:30:35.077Z,38.30
2018-10-17T01:33:04.241Z,37.83
2018-10-17T01:35:34.118Z,33.87
2018-10-17T01:38:04.233Z,36.90
2018-10-17T01:40:33.587Z,37.10
2018-10-17T01:43:04.480Z,33.73
2018-10-17T01:45:36.988Z,35.60
2018-10-17T01:48:06.337Z,35.37
2018-10-17T01:50:35.497Z,36.10
2018-10-17T01:53:04.866Z,36.40
2018-10-17T01:55:34.944Z,35.87
2018-10-17T01:58:04.275Z,34.83
2018-10-17T02:00:35.147Z,34.40
2018-10-17T02:03:05.440Z,36.97
2018-10-17T02:05:35.225Z,35.23
2018-10-17T02:08:04.582Z,35.43
2018-10-17T02:10:35.470Z,37.10
2018-10-17T02:13:04.905Z,34.13
2018-10-17T02:15:34.080Z,34.93
2018-10-17T02:18:03.206Z,34.17
2018-10-17T02:20:33.322Z,36.47
2018-10-17T02:23:02.727Z,38.00
2018-10-17T02:25:33.742Z,39.00
2018-10-17T02:28:03.803Z,35.50
2018-10-17T02:30:32.886Z,35.97
2018-10-17T02:33:03.348Z,37.33
2018-10-17T02:35:34.606Z,35.60
2018-10-17T02:38:05.926Z,35.70
2018-10-17T02:40:36.553Z,38.53
2018-10-17T02:43:06.542Z,37.27
2018-10-17T02:45:36.496Z,38.23
2018-10-17T02:48:05.481Z,38.10
2018-10-17T02:50:39.612Z,40.20
2018-10-17T02:53:09.424Z,39.93
2018-10-17T02:55:38.383Z,39.43
2018-10-17T02:58:07.797Z,39.77
2018-10-17T03:00:38.276Z,39.03
2018-10-17T03:03:08.547Z,37.53
2018-10-17T03:05:39.506Z,38.97
2018-10-17T03:08:08.913Z,39.70
2018-10-17T03:10:38.056Z,39.90
2018-10-17T03:13:08.964Z,42.90
2018-10-17T03:15:39.740Z,41.40
2018-10-17T03:18:11.072Z,41.97
2018-10-17T03:20:40.330Z,41.80
2018-10-17T03:23:10.581Z,42.03
2018-10-17T03:25:40.699Z,43.27
2018-10-17T03:28:09.830Z,41.70
2018-10-17T03:30:41.165Z,41.33
2018-10-17T03:33:10.399Z,39.97
2018-10-17T03:35:42.931Z,42.23
2018-10-17T03:38:13.973Z,42.20
2018-10-17T03:40:44.595Z,43.63
2018-10-17T03:43:17.841Z,40.97
2018-10-17T03:45:47.240Z,43.03
2018-10-17T03:48:17.749Z,40.40
2018-10-17T03:50:49.286Z,41.00
2018-10-17T03:53:22.939Z,40.87
2018-10-17T03:55:53.844Z,39.20
2018-10-17T03:58:36.837Z,36.70
2018-10-17T04:01:18.057Z,38.07
2018-10-17T04:03:47.951Z,40.17
2018-10-17T04:06:17.463Z,38.53
2018-10-17T04:08:46.680Z,37.40
2018-10-17T04:11:16.063Z,38.97
2018-10-17T04:13:45.645Z,40.60
2018-10-17T04:16:16.688Z,39.03
2018-10-17T04:18:47.013Z,41.67
2018-10-17T04:21:17.264Z,42.90
2018-10-17T04:23:47.296Z,45.77
2018-10-17T04:26:17.585Z,45.67
2018-10-17T04:28:49.557Z,45.37
2018-10-17T04:31:20.217Z,46.30
2018-10-17T04:33:52.260Z,49.03
2018-10-17T04:36:23.700Z,54.20
2018-10-17T04:38:52.886Z,49.50
2018-10-17T04:43:57.446Z,50.10
2018-10-17T04:46:26.770Z,51.23
2018-10-17T04:48:56.685Z,53.47
2018-10-17T04:51:26.140Z,59.33
2018-10-17T04:53:57.098Z,51.13
2018-10-17T04:56:27.124Z,54.93
2018-10-17T04:59:01.265Z,57.83
2018-10-17T05:01:37.359Z,71.70
2018-10-17T05:04:06.855Z,61.20
2018-10-17T05:06:36.103Z,62.87
2018-10-17T05:09:14.866Z,76.67
2018-10-17T05:11:44.154Z,77.37
2018-10-17T05:14:13.694Z,62.00
2018-10-17T05:16:43.064Z,78.97
2018-10-17T05:19:16.665Z,67.40
2018-10-17T05:21:49.505Z,63.27
2018-10-17T05:24:20.146Z,61.80
2018-10-17T05:26:51.550Z,75.37
2018-10-17T05:29:23.721Z,70.97
2018-10-17T05:31:55.746Z,70.30
2018-10-17T05:34:25.562Z,77.27
2018-10-17T05:36:57.371Z,78.77
2018-10-17T05:39:26.846Z,86.10
2018-10-17T05:41:56.580Z,77.77
2018-10-17T05:44:26.186Z,83.47
2018-10-17T05:46:56.116Z,70.40
2018-10-17T05:49:25.048Z,71.30
2018-10-17T05:51:54.113Z,69.87
2018-10-17T05:54:24.468Z,73.53
2018-10-17T05:56:55.568Z,67.97
2018-10-17T05:59:24.604Z,62.47
2018-10-17T06:01:53.691Z,56.97
2018-10-17T06:04:22.815Z,58.13
2018-10-17T06:06:51.761Z,63.90
2018-10-17T06:09:21.444Z,61.73
2018-10-17T06:11:50.647Z,68.03
2018-10-17T06:14:19.975Z,57.23
2018-10-17T06:16:49.079Z,54.43
2018-10-17T06:19:18.183Z,57.23
2018-10-17T06:21:47.713Z,60.90
2018-10-17T06:24:16.706Z,57.10
2018-10-17T06:26:45.780Z,55.57
2018-10-17T06:29:15.131Z,57.60
2018-10-17T06:31:44.042Z,49.60
2018-10-17T06:34:13.818Z,56.03
2018-10-17T06:36:43.362Z,51.93
2018-10-17T06:39:13.287Z,51.43
2018-10-17T06:41:42.359Z,51.23
2018-10-17T06:44:11.565Z,52.87
2018-10-17T06:46:40.493Z,52.80
2018-10-17T06:49:09.461Z,53.13
2018-10-17T06:51:38.383Z,50.93
2018-10-17T06:54:07.666Z,48.10
2018-10-17T06:56:36.718Z,45.60
2018-10-17T06:59:07.721Z,48.33
2018-10-17T07:01:36.902Z,47.00
2018-10-17T07:04:06.220Z,43.07
2018-10-17T07:06:35.419Z,40.60
2018-10-17T07:09:06.564Z,40.40
2018-10-17T07:11:35.562Z,41.03
2018-10-17T07:14:05.854Z,42.20
2018-10-17T07:16:35.062Z,43.03
2018-10-17T07:19:04.472Z,37.77
2018-10-17T07:21:35.448Z,34.87
2018-10-17T07:24:04.670Z,37.83
2018-10-17T07:26:34.678Z,41.10
2018-10-17T07:29:03.851Z,37.50
2018-10-17T07:31:32.957Z,39.10
2018-10-17T07:34:02.041Z,38.80
2018-10-17T07:36:30.987Z,31.30
2018-10-17T07:38:59.977Z,35.53
2018-10-17T07:41:28.877Z,33.37
2018-10-17T07:43:57.971Z,33.30
2018-10-17T07:46:27.923Z,34.83
2018-10-17T07:48:57.655Z,33.90
2018-10-17T07:51:26.593Z,32.07
2018-10-17T07:53:55.534Z,30.50
2018-10-17T07:56:25.296Z,30.60
2018-10-17T07:58:54.239Z,23.17
2018-10-17T08:01:23.270Z,22.03
2018-10-17T08:03:52.130Z,23.30
2018-10-17T08:06:21.900Z,19.90
2018-10-17T08:08:50.751Z,20.30
2018-10-17T08:11:19.678Z,19.10
2018-10-17T08:13:48.773Z,18.97
2018-10-17T08:16:18.799Z,13.13
2018-10-17T08:18:47.773Z,13.37
2018-10-17T08:21:17.013Z,13.27
2018-10-17T08:23:46.281Z,11.90
2018-10-17T08:26:16.343Z,12.00
2018-10-17T08:28:45.383Z,12.93
2018-10-17T08:31:14.438Z,13.40
2018-10-17T08:33:43.454Z,13.07
2018-10-17T08:36:12.632Z,13.07
2018-10-17T08:38:41.294Z,12.13
2018-10-17T08:41:10.260Z,14.10
2018-10-17T08:43:39.249Z,13.70
2018-10-17T08:46:08.139Z,13.37
2018-10-17T08:48:37.145Z,13.27
2018-10-17T08:51:06.519Z,12.53
2018-10-17T08:53:36.161Z,11.67
2018-10-17T08:56:05.386Z,11.17
2018-10-17T08:58:34.280Z,10.80
2018-10-17T09:01:04.561Z,8.37
2018-10-17T09:03:33.470Z,8.97
2018-10-17T09:06:02.421Z,9.23
2018-10-17T09:08:31.282Z,7.27
2018-10-17T09:11:00.322Z,5.50
2018-10-17T09:13:29.211Z,6.03
2018-10-17T09:15:58.134Z,6.57
2018-10-17T09:18:27.073Z,6.10
2018-10-17T09:20:56.157Z,5.73
2018-10-17T09:23:24.836Z,6.17
2018-10-17T09:25:53.780Z,6.00
2018-10-17T09:28:22.622Z,5.80
2018-10-17T09:30:52.376Z,4.90
2018-10-17T09:33:21.434Z,4.50
2018-10-17T09:35:51.240Z,5.40
2018-10-17T09:38:20.046Z,5.43
2018-10-17T09:40:49.742Z,4.87
2018-10-17T09:43:18.670Z,5.50
2018-10-17T09:45:47.419Z,6.20
2018-10-17T09:48:16.379Z,6.60
2018-10-17T09:50:45.265Z,5.00
2018-10-17T09:53:16.548Z,5.37
2018-10-17T09:55:45.535Z,5.10
2018-10-17T09:58:14.485Z,4.53
2018-10-17T10:00:49.079Z,5.30
2018-10-17T10:03:18.085Z,4.80
2018-10-17T10:05:48.047Z,5.27
2018-10-17T10:08:17.097Z,5.17
2018-10-17T10:10:46.942Z,5.20
2018-10-17T10:13:16.096Z,4.67
2018-10-17T10:15:45.097Z,4.37
2018-10-17T10:18:14.696Z,4.07
2018-10-17T10:20:44.606Z,3.47
2018-10-17T10:23:13.731Z,3.60
2018-10-17T10:25:43.700Z,3.23
2018-10-17T10:28:12.790Z,2.50
2018-10-17T10:30:41.634Z,3.33
2018-10-17T10:33:10.711Z,3.10
2018-10-17T10:35:39.708Z,3.17
2018-10-17T10:38:09.142Z,3.20
2018-10-17T10:40:38.127Z,3.30
2018-10-17T10:43:07.847Z,2.93
2018-10-17T10:45:37.992Z,3.47
2018-10-17T10:48:09.372Z,3.57
2018-10-17T10:50:38.583Z,2.80
2018-10-17T10:53:07.700Z,3.27
2018-10-17T10:55:39.062Z,2.00
2018-10-17T10:58:10.046Z,2.00
2018-10-17T11:00:43.514Z,2.80
2018-10-17T11:03:13.721Z,2.37
2018-10-17T11:05:44.597Z,2.70
2018-10-17T11:08:15.711Z,2.30
2018-10-17T11:10:46.686Z,2.17
2018-10-17T11:13:17.207Z,2.40
2018-10-17T11:15:47.261Z,2.63
2018-10-17T11:18:16.463Z,2.27
2018-10-17T11:20:46.201Z,2.73
2018-10-17T11:23:17.857Z,2.70
2018-10-17T11:25:51.780Z,2.77
2018-10-17T11:28:22.325Z,2.30
2018-10-17T11:30:57.751Z,2.60
2018-10-17T11:33:28.366Z,3.03
2018-10-17T11:36:02.464Z,3.40
2018-10-17T11:38:33.718Z,4.17
2018-10-17T11:41:04.208Z,3.70
2018-10-17T11:43:36.169Z,3.87
2018-10-17T11:46:05.442Z,3.57
2018-10-17T11:48:34.949Z,3.37
2018-10-17T11:51:04.857Z,3.30
2018-10-17T11:53:34.702Z,3.07
2018-10-17T11:56:05.205Z,2.83
2018-10-17T11:58:40.931Z,3.30
2018-10-17T12:01:13.301Z,3.80
2018-10-17T12:03:44.415Z,3.10
2018-10-17T12:06:17.186Z,3.77
2018-10-17T12:08:52.094Z,4.03
2018-10-17T12:11:42.292Z,4.53
2018-10-17T12:17:52.190Z,3.80
2018-10-17T12:23:19.826Z,5.20
2018-10-17T12:26:04.154Z,3.70
2018-10-17T12:28:36.807Z,4.27
2018-10-17T12:31:20.277Z,4.27
2018-10-17T12:33:53.234Z,4.40
2018-10-17T12:36:25.663Z,3.70
2018-10-17T12:39:00.653Z,3.83
2018-10-17T12:41:48.954Z,3.30
2018-10-17T12:44:30.314Z,3.90
2018-10-17T12:47:44.514Z,5.83
2018-10-17T12:50:21.018Z,6.47
2018-10-17T12:52:50.580Z,10.20
2018-10-17T12:55:19.631Z,14.57
2018-10-17T12:57:52.025Z,5.40
2018-10-17T13:00:22.017Z,4.23
2018-10-17T13:02:51.220Z,3.10
2018-10-17T13:05:27.181Z,3.70
2018-10-17T13:07:57.795Z,3.30
2018-10-17T13:10:26.937Z,3.63
2018-10-17T13:12:56.248Z,2.70
2018-10-17T13:15:26.645Z,2.87
2018-10-17T13:17:56.583Z,3.13
2018-10-17T13:20:31.048Z,3.47
2018-10-17T13:23:02.546Z,3.40
2018-10-17T13:25:37.769Z,3.27
2018-10-17T13:28:09.106Z,2.90
2018-10-17T13:30:39.397Z,2.37
2018-10-17T13:33:08.634Z,3.37
2018-10-17T13:35:37.639Z,2.53
2018-10-17T13:38:08.800Z,2.30
2018-10-17T13:40:39.734Z,2.73
2018-10-17T13:43:10.128Z,2.50
2018-10-17T13:45:41.745Z,2.50
2018-10-17T13:48:12.431Z,2.40
2018-10-17T13:50:42.347Z,2.43
2018-10-17T13:53:13.783Z,2.40
2018-10-17T13:55:45.113Z,2.73
2018-10-17T13:58:14.516Z,2.00
2018-10-17T14:00:49.056Z,1.93
2018-10-17T14:03:19.672Z,2.80
2018-10-17T14:05:50.216Z,2.47
2018-10-17T14:08:21.660Z,2.40
2018-10-17T14:10:53.034Z,2.20
2018-10-17T14:13:26.849Z,1.77
2018-10-17T14:15:57.769Z,2.17
2018-10-17T14:18:30.954Z,2.23
2018-10-17T14:21:03.008Z,2.07
2018-10-17T14:23:36.704Z,2.10
2018-10-17T14:26:07.246Z,2.30
2018-10-17T14:28:39.527Z,3.63
2018-10-17T14:31:08.513Z,4.57
2018-10-17T14:33:41.611Z,5.43
2018-10-17T14:36:10.625Z,4.00
2018-10-17T14:38:39.531Z,4.30
2018-10-17T14:41:09.183Z,4.23
2018-10-17T14:43:38.089Z,4.37
2018-10-17T14:46:07.230Z,4.70
2018-10-17T14:52:11.349Z,5.77
2018-10-17T14:54:41.302Z,4.50
2018-10-17T14:57:11.171Z,4.43
2018-10-17T14:59:40.907Z,5.53
2018-10-17T15:02:11.835Z,5.03
2018-10-17T15:04:41.002Z,5.27
2018-10-17T15:07:14.166Z,5.17
2018-10-17T15:09:44.671Z,4.80
2018-10-17T15:12:14.217Z,5.17
2018-10-17T15:14:44.236Z,4.67
2018-10-17T15:17:13.664Z,4.40
2018-10-17T15:19:43.910Z,4.20
2018-10-17T15:22:13.174Z,4.90
2018-10-17T15:24:46.179Z,4.17
2018-10-17T15:27:16.451Z,4.30
2018-10-17T15:29:47.773Z,4.43
2018-10-17T15:32:18.373Z,4.53
2018-10-17T15:34:50.995Z,4.60
2018-10-17T15:40:06.583Z,4.87
2018-10-17T15:42:37.181Z,4.90
2018-10-17T15:45:12.683Z,4.53
2018-10-17T15:47:42.820Z,5.03
2018-10-17T15:50:11.985Z,4.83
2018-10-17T15:55:39.200Z,5.97
2018-10-17T15:58:09.388Z,6.03
2018-10-17T16:00:44.080Z,5.60
2018-10-17T16:03:15.175Z,5.17
2018-10-17T16:05:45.441Z,5.00
2018-10-17T16:10:49.458Z,5.20
2018-10-17T16:13:19.342Z,5.70
2018-10-17T16:15:48.538Z,5.30
2018-10-17T16:18:59.765Z,6.60
2018-10-17T16:21:32.135Z,5.67
2018-10-17T16:24:02.538Z,6.53
2018-10-17T16:26:31.469Z,7.20
2018-10-17T16:29:04.749Z,7.13
2018-10-17T16:31:34.284Z,7.97
2018-10-17T16:39:54.888Z,7.40
2018-10-17T16:47:57.045Z,7.43
2018-10-17T16:50:28.667Z,7.63
2018-10-17T16:52:58.030Z,8.03
2018-10-17T16:55:27.172Z,7.53
2018-10-17T16:58:09.697Z,6.90
2018-10-17T17:00:38.969Z,7.73
2018-10-17T17:03:08.190Z,7.80
2018-10-17T17:05:37.429Z,7.33
2018-10-17T17:08:06.297Z,7.00
2018-10-17T17:10:37.794Z,7.27
2018-10-17T17:13:07.689Z,6.90
2018-10-17T17:15:36.576Z,7.13
2018-10-17T17:18:05.497Z,8.30
2018-10-17T17:20:34.458Z,7.27
2018-10-17T17:23:03.770Z,7.70
2018-10-17T17:25:32.862Z,7.70
2018-10-17T17:28:02.975Z,7.50
2018-10-17T17:30:36.783Z,7.93
2018-10-17T17:37:12.882Z,8.00
2018-10-17T17:39:42.287Z,8.40
2018-10-17T17:42:11.953Z,6.83
2018-10-17T17:44:40.970Z,8.13
2018-10-17T17:47:10.682Z,6.97
2018-10-17T17:49:40.154Z,8.43
2018-10-17T17:52:09.433Z,7.70
2018-10-17T17:54:38.406Z,7.90
2018-10-17T17:57:08.393Z,8.17
2018-10-17T17:59:52.997Z,8.23
2018-10-17T18:02:22.216Z,8.03
2018-10-17T18:05:54.898Z,8.80
2018-10-17T18:08:26.049Z,11.27
2018-10-17T18:10:55.344Z,10.53
2018-10-17T18:13:26.773Z,9.80
2018-10-17T18:15:58.163Z,9.07
2018-10-17T18:18:30.703Z,10.37
2018-10-17T18:20:59.943Z,9.90
2018-10-17T18:23:29.633Z,9.57
2018-10-17T18:28:58.521Z,11.53
2018-10-17T18:31:27.689Z,11.50
2018-10-17T18:33:56.810Z,11.27
2018-10-17T18:36:26.917Z,13.00
2018-10-17T18:38:57.810Z,13.00
2018-10-17T18:41:29.578Z,12.10
2018-10-17T18:43:59.317Z,12.03
2018-10-17T18:46:30.395Z,13.17
2018-10-17T18:49:00.906Z,12.03
2018-10-17T18:51:32.806Z,12.60
2018-10-17T18:54:24.313Z,11.53
2018-10-17T18:56:58.437Z,11.03
2018-10-17T18:59:28.141Z,12.43
2018-10-17T19:01:58.011Z,11.03
2018-10-17T19:04:29.885Z,12.07
2018-10-17T19:07:01.287Z,13.10
2018-10-17T19:09:33.419Z,13.03
2018-10-17T19:12:02.637Z,13.40
2018-10-17T19:14:35.706Z,13.10
2018-10-17T19:17:07.376Z,12.87
2018-10-17T19:19:40.146Z,12.70
2018-10-17T19:22:11.847Z,13.57
2018-10-17T19:24:43.021Z,15.07
2018-10-17T19:27:13.722Z,14.97
2018-10-17T19:29:45.195Z,15.30
2018-10-17T19:32:14.926Z,14.10
2018-10-17T19:34:44.429Z,13.80
2018-10-17T19:37:14.398Z,15.30
2018-10-17T19:39:49.558Z,14.47
2018-10-17T19:42:20.288Z,16.70
2018-10-17T19:44:56.440Z,15.20
2018-10-17T19:47:28.530Z,13.83
2018-10-17T19:49:57.987Z,11.93
2018-10-17T19:52:28.767Z,12.77
2018-10-17T19:54:59.340Z,13.20
2018-10-17T19:57:28.416Z,13.87
2018-10-17T19:59:58.851Z,14.27
2018-10-17T20:02:28.683Z,14.90
2018-10-17T20:04:57.701Z,12.97
2018-10-17T20:07:27.768Z,12.57
2018-10-17T20:10:00.047Z,12.03
2018-10-17T20:12:31.605Z,12.70
2018-10-17T20:15:01.695Z,12.20
2018-10-17T20:17:31.960Z,11.53
2018-10-17T20:20:03.255Z,12.13
2018-10-17T20:22:35.983Z,11.13
2018-10-17T20:25:05.574Z,11.67
2018-10-17T20:27:38.209Z,12.60
2018-10-17T20:30:24.359Z,12.07
2018-10-17T20:33:13.442Z,12.17
2018-10-17T20:38:31.779Z,13.93
2018-10-17T20:41:04.138Z,14.47
2018-10-17T20:43:35.069Z,14.53
2018-10-17T20:48:46.234Z,14.03
2018-10-17T20:51:16.731Z,14.93
2018-10-17T20:57:24.279Z,15.17
2018-10-17T20:59:53.360Z,16.80
2018-10-17T21:02:22.865Z,16.13
2018-10-17T21:04:52.772Z,18.33
2018-10-17T21:07:27.248Z,18.47
2018-10-17T21:10:03.620Z,18.27
2018-10-17T21:12:36.168Z,18.80
2018-10-17T21:15:09.959Z,18.50
2018-10-17T21:17:44.256Z,19.37
2018-10-17T21:20:15.514Z,18.00
2018-10-17T21:22:48.257Z,17.33
2018-10-17T21:25:17.754Z,18.07
2018-10-17T21:27:49.317Z,15.13
2018-10-17T21:30:28.520Z,15.80
2018-10-17T21:32:58.352Z,16.20
2018-10-17T21:35:28.372Z,15.20
2018-10-17T21:37:58.501Z,15.93
2018-10-17T21:40:28.314Z,15.10
2018-10-17T21:42:57.447Z,15.13
2018-10-17T21:45:26.853Z,15.57
2018-10-17T21:48:05.317Z,14.13
2018-10-17T21:50:36.207Z,14.50
2018-10-17T21:53:08.307Z,14.47
2018-10-17T21:55:39.487Z,14.30
2018-10-17T21:58:09.015Z,14.80
2018-10-17T22:00:39.734Z,14.37
2018-10-17T22:03:10.445Z,14.23
2018-10-17T22:05:48.134Z,13.97
2018-10-17T22:08:18.682Z,14.37
2018-10-17T22:10:47.936Z,14.37
2018-10-17T22:13:17.492Z,13.47
2018-10-17T22:15:51.493Z,11.93
2018-10-17T22:18:22.563Z,13.93
2018-10-17T22:20:52.836Z,14.17
2018-10-17T22:23:27.634Z,15.67
2018-10-17T22:25:59.190Z,15.37
2018-10-17T22:28:30.783Z,13.60
2018-10-17T22:31:00.705Z,14.00
2018-10-17T22:33:29.835Z,14.43
2018-10-17T22:36:01.590Z,14.10
2018-10-17T22:38:32.360Z,14.83
2018-10-17T22:41:02.436Z,14.80
2018-10-17T22:43:33.420Z,15.43
2018-10-17T22:46:02.436Z,13.77
2018-10-17T22:48:31.423Z,15.40
2018-10-17T22:51:05.412Z,14.83
2018-10-17T22:53:34.634Z,15.10
2018-10-17T22:56:03.882Z,16.77
2018-10-17T22:58:35.988Z,15.10
2018-10-17T23:01:09.829Z,14.63
2018-10-17T23:03:38.975Z,14.93
2018-10-17T23:06:08.503Z,16.27
2018-10-17T23:08:37.473Z,15.20
2018-10-17T23:11:08.047Z,16.07
2018-10-17T23:13:39.881Z,16.20
2018-10-17T23:16:13.104Z,16.03
2018-10-17T23:18:42.188Z,13.87
2018-10-17T23:21:13.485Z,16.00
2018-10-17T23:23:45.332Z,14.70
2018-10-17T23:26:14.957Z,14.10
2018-10-17T23:28:49.908Z,13.43
2018-10-17T23:31:19.852Z,15.40
2018-10-17T23:33:49.946Z,15.67
2018-10-17T23:36:20.645Z,17.27
2018-10-17T23:38:51.532Z,16.77
2018-10-17T23:41:21.333Z,16.67
2018-10-17T23:43:50.442Z,15.43
2018-10-17T23:46:19.586Z,16.93
2018-10-17T23:48:48.580Z,17.50
2018-10-17T23:51:22.057Z,16.33
2018-10-17T23:53:52.366Z,18.07
2018-10-17T23:56:21.585Z,17.20
2018-10-17T23:58:56.555Z,17.73
